createdAt,value
2022-11-11T00:01:17.627Z,101821.97
2022-11-11T00:11:38.491Z,101829.90
2022-11-11T00:22:17.616Z,101837.98
2022-11-11T00:32:40.435Z,101842.91
2022-11-11T00:43:04.792Z,101853.75
2022-11-11T00:53:32.102Z,101855.90
2022-11-11T01:03:53.809Z,101853.30
2022-11-11T01:14:14.738Z,101848.89
2022-11-11T01:24:38.053Z,101850.86
2022-11-11T01:34:59.000Z,101852.48
2022-11-11T01:46:00.530Z,101846.23
2022-11-11T01:56:22.913Z,101842.52
2022-11-11T02:06:45.057Z,101844.85
2022-11-11T02:17:15.159Z,101835.27
2022-11-11T02:27:41.716Z,101825.14
2022-11-11T02:38:10.259Z,101825.27
2022-11-11T02:48:31.895Z,101830.27
2022-11-11T02:58:54.049Z,101837.41
2022-11-11T03:09:16.544Z,101842.33
2022-11-11T03:19:38.899Z,101852.19
2022-11-11T03:29:59.461Z,101856.02
2022-11-11T03:40:20.014Z,101873.20
2022-11-11T03:50:40.824Z,101863.19
2022-11-11T04:01:01.313Z,101854.36
2022-11-11T04:11:28.726Z,101858.94
2022-11-11T04:21:50.231Z,101868.35
2022-11-11T04:32:32.629Z,101885.45
2022-11-11T04:42:56.052Z,101889.72
2022-11-11T04:53:16.603Z,101909.89
2022-11-11T05:03:37.348Z,101916.55
2022-11-11T05:14:19.168Z,101898.33
2022-11-11T05:24:58.535Z,101912.84
2022-11-11T05:35:18.893Z,101920.63
2022-11-11T05:45:41.567Z,101910.96
2022-11-11T05:56:02.320Z,101894.65
2022-11-11T06:06:23.083Z,101896.55
2022-11-11T06:16:43.694Z,101907.09
2022-11-11T06:27:04.391Z,101904.23
2022-11-11T06:37:25.025Z,101894.26
2022-11-11T06:47:45.778Z,101899.94
2022-11-11T06:58:10.080Z,101902.57
2022-11-11T07:08:31.222Z,101911.45
2022-11-11T07:18:52.157Z,101916.17
2022-11-11T07:29:14.548Z,101917.89
2022-11-11T07:39:35.026Z,101901.22
2022-11-11T07:49:55.745Z,101892.61
2022-11-11T08:00:18.199Z,101895.98
2022-11-11T08:10:38.558Z,101875.40
2022-11-11T08:20:59.705Z,101892.91
2022-11-11T08:31:20.277Z,101900.10
2022-11-11T08:41:40.787Z,101920.10
2022-11-11T08:52:01.543Z,101930.23
2022-11-11T09:02:22.717Z,101940.64
2022-11-11T09:12:43.021Z,101933.63
2022-11-11T09:23:03.630Z,101929.62
2022-11-11T09:33:25.324Z,101922.92
2022-11-11T09:43:55.669Z,101924.95
2022-11-11T09:54:23.043Z,101913.46
2022-11-11T10:05:03.364Z,101918.02
2022-11-11T10:15:30.187Z,101897.77
2022-11-11T10:25:55.959Z,101887.06
2022-11-11T10:36:20.099Z,101890.21
2022-11-11T10:46:50.074Z,101881.27
2022-11-11T10:57:26.920Z,101862.88
2022-11-11T11:07:52.238Z,101876.29
2022-11-11T11:18:15.469Z,101882.52
2022-11-11T11:28:52.401Z,101870.66
2022-11-11T11:39:13.657Z,101862.29
2022-11-11T11:49:53.416Z,101850.08
2022-11-11T12:00:26.809Z,101842.92
2022-11-11T12:11:14.637Z,101843.02
2022-11-11T12:22:02.815Z,101835.13
2022-11-11T12:32:49.757Z,101831.16
2022-11-11T12:43:23.127Z,101821.38
2022-11-11T12:54:11.699Z,101838.44
2022-11-11T13:05:09.279Z,101836.98
2022-11-11T13:15:31.217Z,101844.50
2022-11-11T13:26:01.974Z,101843.89
2022-11-11T13:36:29.402Z,101817.19
2022-11-11T13:46:50.508Z,101820.27
2022-11-11T13:57:14.625Z,101811.44
2022-11-11T14:07:45.692Z,101808.98
2022-11-11T14:18:17.394Z,101819.28
2022-11-11T14:29:03.586Z,101815.41
2022-11-11T14:39:49.374Z,101812.61
2022-11-11T14:50:31.753Z,101810.60
2022-11-11T15:01:12.482Z,101822.05
2022-11-11T15:11:42.201Z,101823.96
2022-11-11T15:22:42.300Z,101829.02
2022-11-11T15:33:10.118Z,101835.83
2022-11-11T15:43:35.022Z,101838.33
2022-11-11T15:54:29.310Z,101847.58
2022-11-11T16:05:26.848Z,101856.11
2022-11-11T16:16:07.362Z,101866.34
2022-11-11T16:26:28.833Z,101864.61
2022-11-11T16:37:00.310Z,101855.27
2022-11-11T16:47:35.915Z,101849.73
2022-11-11T16:58:00.657Z,101851.51
2022-11-11T17:08:42.623Z,101849.69
2022-11-11T17:19:04.198Z,101851.69
2022-11-11T17:29:24.920Z,101868.23
2022-11-11T17:39:47.051Z,101883.16
2022-11-11T17:50:08.320Z,101891.15
2022-11-11T18:00:29.954Z,101883.27
2022-11-11T18:10:50.434Z,101873.52
2022-11-11T18:21:11.290Z,101884.16
2022-11-11T18:31:32.217Z,101890.48
2022-11-11T18:41:52.750Z,101881.42
2022-11-11T18:52:14.496Z,101871.58
2022-11-11T19:02:35.230Z,101870.13
2022-11-11T19:12:55.596Z,101885.99
2022-11-11T19:23:16.856Z,101895.38
2022-11-11T19:33:39.761Z,101896.77
2022-11-11T19:44:00.826Z,101909.79
2022-11-11T19:54:21.322Z,101919.65
2022-11-11T20:04:42.643Z,101937.73
2022-11-11T20:15:03.979Z,101957.67
2022-11-11T20:25:24.986Z,101959.82
2022-11-11T20:35:46.180Z,101958.92
2022-11-11T20:46:13.626Z,101946.14
2022-11-11T20:56:34.536Z,101941.85
2022-11-11T21:06:55.116Z,101964.77
2022-11-11T21:17:15.583Z,101965.46
2022-11-11T21:27:36.330Z,101963.35
2022-11-11T21:37:57.094Z,101956.80
2022-11-11T21:48:17.957Z,101964.96
2022-11-11T21:58:38.968Z,101972.00
2022-11-11T22:09:00.614Z,101968.09
2022-11-11T22:19:21.008Z,101980.08
2022-11-11T22:29:41.474Z,101982.02
2022-11-11T22:40:02.197Z,101986.15
2022-11-11T22:50:22.585Z,101982.36
2022-11-11T23:00:43.657Z,101977.40
2022-11-11T23:11:05.372Z,101981.77
2022-11-11T23:21:28.290Z,101983.73
2022-11-11T23:31:49.865Z,101983.65
2022-11-11T23:42:10.379Z,101990.36
2022-11-11T23:52:31.150Z,101988.04
